Ashby, Massachusetts
Current Conditions -  °F | °C
As of 2:52 AM on Sunday 26 Oct 2014 (Local Time) from KFIT Reporting Station
Clear Clear  
Wind Chill: 53°   Ceiling: Unl
Heat Index: 53°   Visibility: 10mi
Dew Point: 43°   Wind: 6mph
Humidity: 69%   Direction: 330°NNW
Pressure: 29.46"   Gusts: NA
Location:  42.68°N, 71.82°W
Report Text: KFIT 260652Z AUTO 33005KT 10SM CLR 12/06 A2946 RMK AO2 SLP976 T01170061
Loading
Personal Weather Stations






























Interactive Weather Map New forecast layout! Learn more

10-Day Weather Forecast

Advertisements
Track Severe Weather on mobile